Time;durP1;ratioP1;P1;durP2;ratioP2;P2;SDS_P1;SDS_P2;PMS_P1;PMS_P2;Temp;Humidity;BMP_temperature;BMP_pressure;BME280_temperature;BME280_humidity;BME280_pressure;Samples;Min_cycle;Max_cycle;Signal;HPM_P1;HPM_P2
2024/01/03 00:01:21;;;;;;;22.92;4.78;;;10.00;99.90;;;;;;5094861;28;20035;-70
2024/01/03 00:03:47;;;;;;;14.68;3.70;;;10.00;99.90;;;;;;5092286;28;20411;-70
2024/01/03 00:06:14;;;;;;;14.98;3.92;;;10.10;99.90;;;;;;5092287;28;20382;-70
2024/01/03 00:08:40;;;;;;;22.63;4.75;;;10.00;99.90;;;;;;5100295;28;20031;-70
2024/01/03 00:11:07;;;;;;;24.40;4.53;;;10.00;99.90;;;;;;5112714;28;20036;-70
2024/01/03 00:13:35;;;;;;;27.00;5.30;;;10.00;99.90;;;;;;5112629;28;20147;-70
2024/01/03 00:16:01;;;;;;;17.63;4.05;;;10.00;99.90;;;;;;5112676;28;20023;-71
2024/01/03 00:18:51;;;;;;;20.10;4.40;;;10.10;99.90;;;;;;5108718;28;20020;-71
2024/01/03 00:21:23;;;;;;;18.13;4.03;;;10.00;99.90;;;;;;5113976;28;20066;-71
2024/01/03 00:24:00;;;;;;;19.65;3.88;;;10.00;99.90;;;;;;5116055;28;20081;-71
2024/01/03 00:26:28;;;;;;;26.20;4.13;;;10.00;99.90;;;;;;5116462;28;20547;-70
2024/01/03 00:28:55;;;;;;;25.30;4.78;;;10.00;99.90;;;;;;5114966;28;20024;-71
2024/01/03 00:31:26;;;;;;;23.63;4.93;;;10.00;99.90;;;;;;5109298;28;20043;-71
2024/01/03 00:33:52;;;;;;;19.37;4.00;;;10.00;99.90;;;;;;5096065;28;20585;-71
2024/01/03 00:36:18;;;;;;;18.08;4.32;;;10.10;99.90;;;;;;5102483;28;20024;-71
2024/01/03 00:38:44;;;;;;;23.08;4.15;;;10.20;99.90;;;;;;5114157;28;20028;-71
2024/01/03 00:41:11;;;;;;;23.05;4.57;;;10.20;99.90;;;;;;5116260;28;20023;-71
2024/01/03 00:43:37;;;;;;;22.23;5.25;;;10.20;99.90;;;;;;5116420;28;20095;-71
2024/01/03 00:46:03;;;;;;;24.27;5.25;;;10.20;99.90;;;;;;5116508;28;20114;-71
2024/01/03 00:48:29;;;;;;;18.38;4.78;;;10.30;99.90;;;;;;5114170;28;20032;-71
2024/01/03 00:50:55;;;;;;;19.30;4.20;;;10.30;99.90;;;;;;5098411;28;20048;-71
2024/01/03 00:53:21;;;;;;;20.10;4.75;;;10.30;99.90;;;;;;5112989;28;20384;-71
2024/01/03 00:55:47;;;;;;;18.00;4.50;;;10.20;99.90;;;;;;5114542;28;20032;-71
2024/01/03 00:58:12;;;;;;;25.33;4.93;;;10.30;99.90;;;;;;5114130;28;20190;-71
2024/01/03 01:00:38;;;;;;;17.60;4.35;;;10.30;99.90;;;;;;5095110;28;20051;-71
2024/01/03 01:03:05;;;;;;;23.98;5.10;;;10.30;99.90;;;;;;5094040;28;20192;-71
2024/01/03 01:05:31;;;;;;;26.52;5.25;;;10.30;99.90;;;;;;5095323;28;20030;-71
2024/01/03 01:07:57;;;;;;;24.00;5.75;;;10.40;99.90;;;;;;5095249;28;20400;-71
2024/01/03 01:10:22;;;;;;;25.17;5.47;;;10.40;99.90;;;;;;5110068;28;20044;-71
2024/01/03 01:12:48;;;;;;;28.65;5.63;;;10.40;99.90;;;;;;5115742;28;20032;-71
2024/01/03 01:15:13;;;;;;;37.35;7.25;;;10.50;99.90;;;;;;5116062;28;20421;-70
2024/01/03 01:17:39;;;;;;;26.27;6.57;;;10.40;99.90;;;;;;5115360;28;20474;-70
2024/01/03 01:20:05;;;;;;;29.42;7.38;;;10.40;99.90;;;;;;5102737;28;20078;-70
2024/01/03 01:22:31;;;;;;;47.42;9.35;;;10.40;99.90;;;;;;5095365;28;20036;-70
2024/01/03 01:24:56;;;;;;;47.05;8.23;;;10.30;99.90;;;;;;5095343;28;20028;-70
2024/01/03 01:27:22;;;;;;;43.95;8.65;;;10.20;99.90;;;;;;5095775;28;20059;-70
2024/01/03 01:29:48;;;;;;;43.55;9.25;;;10.20;99.90;;;;;;5107438;28;20093;-69
2024/01/03 01:32:13;;;;;;;40.78;8.75;;;10.10;99.90;;;;;;5093549;28;20438;-70
2024/01/03 01:34:39;;;;;;;35.67;8.10;;;10.10;99.90;;;;;;5094843;28;20851;-69
2024/01/03 01:37:05;;;;;;;34.90;7.20;;;10.20;99.90;;;;;;5106765;28;20024;-70
2024/01/03 01:39:30;;;;;;;34.70;7.13;;;10.20;99.90;;;;;;5106558;28;20036;-70
2024/01/03 01:41:56;;;;;;;34.33;7.97;;;10.30;99.90;;;;;;5094790;28;20069;-69
2024/01/03 01:44:21;;;;;;;40.72;8.50;;;10.30;99.90;;;;;;5094925;28;20024;-70
2024/01/03 01:46:47;;;;;;;40.63;8.27;;;10.30;99.90;;;;;;5076519;28;20032;-70
2024/01/03 01:49:18;;;;;;;35.90;6.70;;;10.40;99.90;;;;;;5094673;28;20056;-70
2024/01/03 01:51:44;;;;;;;41.80;7.57;;;10.40;99.90;;;;;;5102119;28;20100;-70
2024/01/03 01:54:11;;;;;;;40.33;7.50;;;10.50;99.90;;;;;;5115195;28;20027;-70
2024/01/03 01:56:37;;;;;;;30.23;5.95;;;10.50;99.90;;;;;;5115304;28;20448;-70
2024/01/03 01:59:05;;;;;;;33.75;7.07;;;10.50;99.90;;;;;;5113696;28;20473;-70
2024/01/03 02:01:31;;;;;;;38.47;7.57;;;10.50;99.90;;;;;;5106013;28;20039;-70
2024/01/03 02:03:57;;;;;;;38.70;7.43;;;10.60;99.90;;;;;;5108326;28;20051;-70
2024/01/03 02:06:23;;;;;;;33.83;6.75;;;10.60;99.90;;;;;;5114868;28;20072;-69
2024/01/03 02:08:49;;;;;;;32.17;6.72;;;10.60;99.90;;;;;;5112563;28;20035;-70
2024/01/03 02:11:14;;;;;;;32.42;8.40;;;10.60;99.90;;;;;;5095846;28;20485;-70
2024/01/03 02:13:44;;;;;;;26.05;6.30;;;10.70;99.90;;;;;;5114756;28;20095;-70
2024/01/03 02:16:10;;;;;;;41.88;7.43;;;10.70;99.90;;;;;;5104135;28;20098;-70
2024/01/03 02:18:36;;;;;;;38.08;7.00;;;10.70;99.90;;;;;;5093949;28;20032;-70
2024/01/03 02:21:02;;;;;;;34.92;7.40;;;10.70;99.90;;;;;;5093147;28;20056;-70
2024/01/03 02:23:27;;;;;;;31.52;7.85;;;10.70;99.90;;;;;;5094123;28;20036;-70
2024/01/03 02:25:53;;;;;;;36.35;7.10;;;10.70;99.90;;;;;;5094127;28;20024;-70
2024/01/03 02:28:18;;;;;;;43.75;8.23;;;10.70;99.90;;;;;;5094022;28;20077;-70
2024/01/03 02:30:44;;;;;;;33.38;7.97;;;10.70;99.90;;;;;;5093739;28;20040;-70
2024/01/03 02:33:11;;;;;;;28.70;6.55;;;10.70;99.90;;;;;;5093868;28;20081;-71
2024/01/03 02:35:37;;;;;;;37.53;7.25;;;10.70;99.90;;;;;;5093019;28;20020;-71
2024/01/03 02:38:03;;;;;;;33.72;7.03;;;10.70;99.90;;;;;;5093699;28;20040;-70
2024/01/03 02:40:28;;;;;;;37.92;6.43;;;10.80;99.90;;;;;;5093522;28;20074;-70
2024/01/03 02:42:54;;;;;;;31.23;7.13;;;10.80;99.90;;;;;;5093022;28;20032;-70
2024/01/03 02:45:19;;;;;;;34.88;8.43;;;10.80;99.90;;;;;;5093474;28;20031;-70
2024/01/03 02:47:45;;;;;;;37.33;7.78;;;10.80;99.90;;;;;;5093879;28;20075;-70
2024/01/03 02:50:10;;;;;;;36.50;7.70;;;10.90;99.90;;;;;;5093437;28;20038;-70
2024/01/03 02:52:36;;;;;;;32.83;7.63;;;10.80;99.90;;;;;;5097092;28;20483;-71
2024/01/03 02:55:01;;;;;;;31.20;7.07;;;10.80;99.90;;;;;;5114052;28;20031;-70
2024/01/03 02:57:27;;;;;;;35.88;8.27;;;10.80;99.90;;;;;;5094597;28;20028;-71
2024/01/03 02:59:53;;;;;;;34.53;7.20;;;10.80;99.90;;;;;;5092867;28;20024;-71
2024/01/03 03:02:18;;;;;;;31.80;7.28;;;10.80;99.90;;;;;;5092887;28;20441;-71
2024/01/03 03:04:44;;;;;;;31.88;7.28;;;10.80;99.90;;;;;;5094656;28;20063;-71
2024/01/03 03:07:10;;;;;;;35.88;8.05;;;10.90;99.90;;;;;;5113511;28;20058;-71
2024/01/03 03:09:35;;;;;;;36.88;8.38;;;10.80;99.90;;;;;;5113777;28;20032;-71
2024/01/03 03:12:01;;;;;;;39.58;8.27;;;10.80;99.90;;;;;;5112429;28;20177;-71
2024/01/03 03:14:27;;;;;;;37.00;7.80;;;10.90;99.90;;;;;;5113211;28;20172;-71
2024/01/03 03:16:52;;;;;;;32.70;7.65;;;10.90;99.90;;;;;;5113710;28;20081;-71
2024/01/03 03:19:18;;;;;;;38.38;8.05;;;10.90;99.90;;;;;;5113621;28;20483;-71
2024/01/03 03:21:43;;;;;;;31.77;6.68;;;10.90;99.90;;;;;;5105294;28;20510;-71
2024/01/03 03:24:09;;;;;;;35.42;7.05;;;10.90;99.90;;;;;;5074543;28;20036;-71
2024/01/03 03:26:34;;;;;;;36.83;7.15;;;10.90;99.90;;;;;;5092478;28;20035;-71
2024/01/03 03:29:00;;;;;;;34.40;7.38;;;10.80;99.90;;;;;;5092270;28;20109;-71
2024/01/03 03:31:26;;;;;;;41.50;8.50;;;10.90;99.90;;;;;;5092993;28;20075;-71
2024/01/03 03:33:51;;;;;;;34.83;7.05;;;11.00;99.90;;;;;;5092969;28;20035;-71
2024/01/03 03:36:17;;;;;;;36.33;7.57;;;11.00;99.90;;;;;;5092876;28;20020;-71
2024/01/03 03:38:42;;;;;;;42.63;7.85;;;11.00;99.90;;;;;;5095597;28;20024;-71
2024/01/03 03:41:12;;;;;;;36.25;7.97;;;10.90;99.90;;;;;;5111403;28;20032;-71
2024/01/03 03:43:39;;;;;;;35.53;8.18;;;10.90;99.90;;;;;;5092761;28;20027;-71
2024/01/03 03:46:08;;;;;;;38.70;8.48;;;11.00;99.90;;;;;;5112851;28;20039;-71
2024/01/03 03:48:34;;;;;;;32.60;8.50;;;11.00;99.90;;;;;;5112799;28;20032;-71
2024/01/03 03:51:01;;;;;;;39.38;8.18;;;10.90;99.90;;;;;;5112561;28;20362;-71
2024/01/03 03:53:26;;;;;;;31.50;6.38;;;10.90;99.90;;;;;;5112210;28;20031;-71
2024/01/03 03:55:52;;;;;;;34.20;7.35;;;10.90;99.90;;;;;;5109602;28;20080;-71
2024/01/03 03:58:17;;;;;;;32.05;7.60;;;10.80;99.90;;;;;;5092386;28;20105;-71
2024/01/03 04:00:43;;;;;;;32.00;7.57;;;10.90;99.90;;;;;;5092484;28;20024;-71
2024/01/03 04:03:08;;;;;;;36.88;7.65;;;10.90;99.90;;;;;;5092250;28;20024;-71
2024/01/03 04:05:36;;;;;;;36.28;8.07;;;10.90;99.90;;;;;;5074486;28;20032;-71
2024/01/03 04:08:02;;;;;;;37.25;7.00;;;10.90;99.90;;;;;;5111714;28;20162;-70
2024/01/03 04:10:28;;;;;;;36.78;7.10;;;10.90;99.90;;;;;;5112688;28;20119;-70
2024/01/03 04:12:55;;;;;;;33.92;7.05;;;10.80;99.90;;;;;;5096190;28;20032;-70
2024/01/03 04:15:21;;;;;;;33.13;6.40;;;10.90;99.90;;;;;;5112539;28;20032;-71
2024/01/03 04:17:47;;;;;;;39.63;7.43;;;10.90;99.90;;;;;;5112636;28;20164;-71
2024/01/03 04:20:12;;;;;;;34.75;7.07;;;10.90;99.90;;;;;;5112712;28;20118;-71
2024/01/03 04:22:42;;;;;;;36.72;7.88;;;10.90;99.90;;;;;;5098113;28;20097;-71
2024/01/03 04:25:08;;;;;;;32.80;6.45;;;10.90;99.90;;;;;;5092240;28;20166;-71
2024/01/03 04:27:33;;;;;;;38.13;7.82;;;10.90;99.90;;;;;;5091871;28;20111;-71
2024/01/03 04:29:59;;;;;;;38.92;6.95;;;10.90;99.90;;;;;;5099858;28;20415;-71
2024/01/03 04:32:25;;;;;;;29.27;6.55;;;10.90;99.90;;;;;;5101138;28;20787;-71
2024/01/03 04:34:51;;;;;;;30.98;6.72;;;10.90;99.90;;;;;;5108144;28;20053;-71
2024/01/03 04:37:16;;;;;;;32.60;6.78;;;10.90;99.90;;;;;;5112587;28;20028;-71
2024/01/03 04:39:42;;;;;;;33.70;6.80;;;10.90;99.90;;;;;;5110742;28;20377;-71
2024/01/03 04:42:08;;;;;;;36.75;7.95;;;10.90;99.90;;;;;;5112446;28;20039;-71
2024/01/03 04:44:34;;;;;;;34.95;7.72;;;10.90;99.90;;;;;;5098311;28;20029;-71
2024/01/03 04:47:00;;;;;;;34.55;6.63;;;10.90;99.90;;;;;;5100771;28;20073;-71
2024/01/03 04:49:27;;;;;;;35.60;7.25;;;10.90;99.90;;;;;;5112531;28;20043;-71
2024/01/03 04:51:53;;;;;;;37.08;8.77;;;11.00;99.90;;;;;;5112525;28;20050;-71
2024/01/03 04:54:18;;;;;;;34.95;6.50;;;11.00;99.90;;;;;;5105882;28;20392;-70
2024/01/03 04:56:44;;;;;;;35.63;7.40;;;11.00;99.90;;;;;;5094402;28;20025;-72
2024/01/03 04:59:09;;;;;;;36.08;7.97;;;11.00;99.90;;;;;;5105176;28;20111;-71
2024/01/03 05:01:35;;;;;;;39.33;7.50;;;10.90;99.90;;;;;;5111365;28;20036;-71
2024/01/03 05:04:02;;;;;;;36.85;7.82;;;10.90;99.90;;;;;;5111015;28;20071;-71
2024/01/03 05:06:28;;;;;;;33.33;6.72;;;10.90;99.90;;;;;;5095180;28;20400;-71
2024/01/03 05:08:53;;;;;;;36.38;7.32;;;10.90;99.90;;;;;;5116165;28;20031;-71
2024/01/03 05:11:19;;;;;;;32.60;7.88;;;10.90;99.90;;;;;;5116175;28;20107;-71
2024/01/03 05:13:44;;;;;;;28.45;6.20;;;11.00;99.90;;;;;;5104069;28;20032;-71
2024/01/03 05:16:10;;;;;;;32.80;7.38;;;11.00;99.90;;;;;;5095610;28;20031;-71
2024/01/03 05:18:36;;;;;;;31.25;6.70;;;11.00;99.90;;;;;;5104116;28;20030;-71
2024/01/03 05:21:02;;;;;;;36.05;7.85;;;11.00;99.90;;;;;;5115625;28;20107;-71
2024/01/03 05:23:28;;;;;;;35.55;7.03;;;11.00;99.90;;;;;;5111769;28;20099;-70
2024/01/03 05:25:53;;;;;;;35.45;6.88;;;11.00;99.90;;;;;;5115603;28;20042;-71
2024/01/03 05:28:19;;;;;;;34.33;7.90;;;11.00;99.90;;;;;;5115853;28;20035;-71
2024/01/03 05:30:44;;;;;;;33.65;7.32;;;11.00;99.90;;;;;;5115696;28;20358;-71
2024/01/03 05:33:10;;;;;;;36.15;7.38;;;11.10;99.90;;;;;;5115816;28;20488;-71
2024/01/03 05:35:35;;;;;;;40.63;8.77;;;11.00;99.90;;;;;;5114813;28;20469;-70
2024/01/03 05:38:01;;;;;;;35.00;8.13;;;11.00;99.90;;;;;;5115689;28;20035;-71
2024/01/03 05:40:26;;;;;;;35.33;7.85;;;11.00;99.90;;;;;;5103134;28;20032;-71
2024/01/03 05:42:52;;;;;;;36.00;7.70;;;10.90;99.90;;;;;;5095019;28;20035;-71
2024/01/03 05:45:17;;;;;;;40.08;9.45;;;10.90;99.90;;;;;;5094888;28;20024;-71
2024/01/03 05:47:43;;;;;;;37.92;7.28;;;10.90;99.90;;;;;;5087550;28;20027;-71
2024/01/03 05:50:08;;;;;;;38.28;8.90;;;10.90;99.90;;;;;;5115467;28;20107;-71
2024/01/03 05:52:35;;;;;;;47.42;8.43;;;10.90;99.90;;;;;;5115161;28;20110;-71
2024/01/03 05:55:01;;;;;;;38.45;8.85;;;10.90;99.90;;;;;;5113079;28;20031;-71
2024/01/03 05:57:26;;;;;;;40.00;9.02;;;10.90;99.90;;;;;;5109161;28;20492;-71
2024/01/03 05:59:52;;;;;;;42.38;7.97;;;10.90;99.90;;;;;;5115641;28;20059;-71
2024/01/03 06:02:17;;;;;;;39.30;9.50;;;10.90;99.90;;;;;;5114661;28;20031;-71
2024/01/03 06:04:44;;;;;;;43.53;8.07;;;10.90;99.90;;;;;;5105667;28;20048;-71
2024/01/03 06:07:10;;;;;;;35.72;8.07;;;10.90;99.90;;;;;;5115146;28;20027;-71
2024/01/03 06:09:36;;;;;;;38.92;8.38;;;10.90;99.90;;;;;;5114773;28;20043;-71
2024/01/03 06:12:03;;;;;;;44.33;9.13;;;10.80;99.90;;;;;;5113167;28;20035;-72
2024/01/03 06:14:29;;;;;;;39.60;8.65;;;10.80;99.90;;;;;;5113222;28;20494;-71
2024/01/03 06:16:55;;;;;;;39.72;9.05;;;10.80;99.90;;;;;;5115165;28;20027;-71
2024/01/03 06:19:20;;;;;;;40.38;9.07;;;10.90;99.90;;;;;;5114007;28;20051;-71
2024/01/03 06:21:46;;;;;;;45.42;9.02;;;10.90;99.90;;;;;;5105752;28;20020;-71
2024/01/03 06:24:12;;;;;;;39.50;8.80;;;10.80;99.90;;;;;;5093413;28;20050;-71
2024/01/03 06:26:37;;;;;;;46.90;8.88;;;10.80;99.90;;;;;;5107607;28;20020;-71
2024/01/03 06:29:03;;;;;;;47.40;9.15;;;10.80;99.90;;;;;;5115240;28;20057;-71
2024/01/03 06:31:28;;;;;;;39.50;8.80;;;10.80;99.90;;;;;;5109471;28;20096;-71
2024/01/03 06:33:54;;;;;;;39.85;9.18;;;10.80;99.90;;;;;;5094476;28;20039;-71
2024/01/03 06:36:20;;;;;;;41.72;9.13;;;10.80;99.90;;;;;;5093890;28;20024;-71
2024/01/03 06:38:46;;;;;;;43.28;8.23;;;10.80;99.90;;;;;;5108359;28;20092;-71
2024/01/03 06:41:11;;;;;;;41.75;9.85;;;10.70;99.90;;;;;;5111839;28;20111;-71
2024/01/03 06:43:37;;;;;;;50.10;9.27;;;10.70;99.90;;;;;;5113497;28;20110;-71
2024/01/03 06:46:03;;;;;;;47.03;9.20;;;10.60;99.90;;;;;;5113517;28;20032;-71
2024/01/03 06:48:28;;;;;;;39.78;8.80;;;10.60;99.90;;;;;;5113145;28;20050;-71
2024/01/03 06:50:55;;;;;;;40.80;8.57;;;10.60;99.90;;;;;;5111236;28;20438;-71
2024/01/03 06:53:20;;;;;;;41.03;8.40;;;10.60;99.90;;;;;;5112180;28;20031;-71
2024/01/03 06:55:46;;;;;;;37.08;7.80;;;10.50;99.90;;;;;;5111116;28;20035;-71
2024/01/03 06:58:11;;;;;;;39.22;9.00;;;10.50;99.90;;;;;;5111134;28;20028;-71
2024/01/03 07:00:37;;;;;;;41.20;8.65;;;10.50;99.90;;;;;;5112473;28;20043;-72
2024/01/03 07:03:03;;;;;;;41.60;8.70;;;10.50;99.90;;;;;;5111355;28;20032;-71
2024/01/03 07:05:29;;;;;;;47.40;8.68;;;10.50;99.90;;;;;;5113050;28;20055;-71
2024/01/03 07:07:56;;;;;;;41.45;7.95;;;10.50;99.90;;;;;;5111357;28;20104;-71
2024/01/03 07:10:22;;;;;;;48.67;8.68;;;10.60;99.90;;;;;;5111131;28;20495;-71
2024/01/03 07:12:48;;;;;;;34.60;7.90;;;10.50;99.90;;;;;;5095128;28;20431;-70
2024/01/03 07:15:17;;;;;;;34.10;7.10;;;10.50;99.90;;;;;;5104622;28;20035;-71
2024/01/03 07:17:44;;;;;;;36.97;7.97;;;10.50;99.90;;;;;;5109808;28;20373;-70
2024/01/03 07:20:11;;;;;;;37.55;7.68;;;10.50;99.90;;;;;;5112770;28;20036;-70
2024/01/03 07:22:37;;;;;;;34.40;6.85;;;10.40;99.90;;;;;;5113200;28;20034;-70
2024/01/03 07:25:02;;;;;;;35.15;6.75;;;10.40;99.90;;;;;;5110282;28;20415;-70
2024/01/03 07:27:28;;;;;;;35.75;7.22;;;10.40;99.90;;;;;;5109761;28;20046;-71
2024/01/03 07:29:53;;;;;;;30.95;6.53;;;10.40;99.90;;;;;;5111703;28;20045;-71
2024/01/03 07:33:02;;;;;;;38.22;7.05;;;10.30;99.90;;;;;;5111510;28;20091;-71
2024/01/03 07:35:28;;;;;;;37.05;7.60;;;10.30;99.90;;;;;;5101250;28;20042;-71
2024/01/03 07:37:55;;;;;;;40.20;7.88;;;10.30;99.90;;;;;;5112646;28;20444;-71
2024/01/03 07:40:20;;;;;;;32.55;7.15;;;10.20;99.90;;;;;;5112987;28;20027;-71
2024/01/03 07:42:46;;;;;;;42.25;7.97;;;10.20;99.90;;;;;;5106951;28;20028;-71
2024/01/03 07:45:12;;;;;;;38.50;7.55;;;10.20;99.90;;;;;;5112299;28;20029;-71
2024/01/03 07:47:37;;;;;;;37.45;8.00;;;10.20;99.90;;;;;;5111708;28;20016;-71
2024/01/03 07:50:03;;;;;;;35.88;9.10;;;10.30;99.90;;;;;;5106783;28;20039;-72
2024/01/03 07:52:29;;;;;;;33.15;6.80;;;10.20;99.90;;;;;;5112481;28;20492;-71
2024/01/03 07:54:54;;;;;;;38.90;8.27;;;10.20;99.90;;;;;;5111784;28;20103;-71
2024/01/03 07:57:20;;;;;;;35.75;7.60;;;10.30;99.90;;;;;;5112279;28;20507;-71
2024/01/03 07:59:47;;;;;;;38.25;7.78;;;10.30;99.90;;;;;;5111038;28;20034;-72
2024/01/03 08:02:12;;;;;;;42.00;8.32;;;10.30;99.90;;;;;;5111877;28;20038;-71
2024/01/03 08:04:39;;;;;;;34.55;7.65;;;10.40;99.90;;;;;;5109639;28;20051;-71
2024/01/03 08:07:05;;;;;;;36.58;7.25;;;10.50;99.90;;;;;;5092274;28;20119;-71
2024/01/03 08:09:32;;;;;;;47.10;6.78;;;10.50;99.90;;;;;;5111042;28;20059;-71
2024/01/03 08:11:58;;;;;;;33.65;7.07;;;10.60;99.90;;;;;;5112486;28;20032;-71
2024/01/03 08:14:24;;;;;;;40.15;7.15;;;10.60;99.90;;;;;;5110179;28;20031;-71
2024/01/03 08:16:49;;;;;;;32.47;6.72;;;10.70;99.90;;;;;;5111810;28;20102;-71
2024/01/03 08:19:15;;;;;;;41.65;7.70;;;10.80;99.90;;;;;;5107924;28;20098;-71
2024/01/03 08:21:41;;;;;;;33.55;6.82;;;10.70;99.90;;;;;;5111357;28;20024;-71
2024/01/03 08:24:07;;;;;;;34.10;6.72;;;10.80;99.90;;;;;;5109388;28;20024;-72
2024/01/03 08:26:32;;;;;;;37.03;6.38;;;10.70;99.90;;;;;;5107115;28;20028;-72
2024/01/03 08:28:58;;;;;;;35.30;6.55;;;10.80;99.90;;;;;;5110341;28;20035;-71
2024/01/03 08:31:24;;;;;;;32.78;6.43;;;10.80;99.90;;;;;;5112299;28;20138;-73
2024/01/03 08:33:49;;;;;;;37.05;7.55;;;10.80;99.90;;;;;;5112315;28;20398;-70
2024/01/03 08:36:15;;;;;;;34.70;7.53;;;10.80;99.90;;;;;;5111622;28;20499;-72
2024/01/03 08:38:41;;;;;;;37.83;7.75;;;10.90;99.90;;;;;;5109572;28;20392;-70
2024/01/03 08:41:17;;;;;;;34.75;6.22;;;10.90;99.90;;;;;;5105330;28;20032;-71
2024/01/03 08:43:43;;;;;;;27.88;6.22;;;10.90;99.90;;;;;;5106685;28;20103;-71
2024/01/03 08:46:09;;;;;;;37.83;6.65;;;11.00;99.90;;;;;;5114958;28;20045;-71
2024/01/03 08:48:36;;;;;;;31.25;6.40;;;11.00;99.90;;;;;;5114185;28;20457;-70
2024/01/03 08:51:02;;;;;;;33.97;6.97;;;11.00;99.90;;;;;;5113030;28;20122;-72
2024/01/03 08:53:27;;;;;;;31.27;6.65;;;11.00;99.90;;;;;;5103992;28;20099;-70
2024/01/03 08:55:53;;;;;;;32.30;7.00;;;11.00;99.90;;;;;;5116342;28;20031;-71
2024/01/03 08:58:19;;;;;;;30.75;6.18;;;11.00;99.90;;;;;;5115722;28;20016;-71
2024/01/03 09:00:45;;;;;;;31.05;6.32;;;11.10;99.90;;;;;;5116306;28;20053;-71
2024/01/03 09:03:10;;;;;;;31.55;6.20;;;11.10;99.90;;;;;;5115831;28;20020;-71
2024/01/03 09:05:37;;;;;;;30.70;5.93;;;11.10;99.90;;;;;;5100228;28;20026;-72
2024/01/03 09:08:06;;;;;;;36.45;6.28;;;11.20;99.90;;;;;;5100681;28;20031;-72
2024/01/03 09:10:35;;;;;;;39.27;7.00;;;11.20;99.90;;;;;;5115484;28;20130;-71
2024/01/03 09:13:00;;;;;;;32.05;5.65;;;11.20;99.90;;;;;;5115605;28;20700;-71
2024/01/03 09:15:26;;;;;;;25.73;5.20;;;11.20;99.90;;;;;;5116157;28;20533;-72
2024/01/03 09:17:51;;;;;;;24.80;4.80;;;11.20;99.90;;;;;;5115350;28;20030;-72
2024/01/03 09:20:17;;;;;;;30.10;5.50;;;11.20;99.90;;;;;;5100084;28;20070;-71
2024/01/03 09:22:42;;;;;;;29.30;5.55;;;11.20;99.90;;;;;;5096560;28;20027;-71
2024/01/03 09:25:08;;;;;;;29.65;5.28;;;11.20;99.90;;;;;;5102614;28;20028;-72
2024/01/03 09:27:34;;;;;;;32.08;5.88;;;11.20;99.90;;;;;;5114671;28;20114;-71
2024/01/03 09:30:00;;;;;;;32.13;5.85;;;11.10;99.90;;;;;;5115416;28;20114;-71
2024/01/03 09:32:26;;;;;;;26.17;5.50;;;11.10;99.90;;;;;;5107684;28;20469;-71
2024/01/03 09:34:51;;;;;;;29.50;6.63;;;11.10;99.90;;;;;;5115801;28;20023;-71
2024/01/03 09:37:17;;;;;;;27.52;5.68;;;11.10;99.90;;;;;;5112899;28;20032;-72
2024/01/03 09:39:42;;;;;;;28.42;5.18;;;11.10;99.90;;;;;;5111258;28;20031;-72
2024/01/03 09:42:09;;;;;;;28.20;5.40;;;11.10;99.90;;;;;;5111458;28;20115;-70
2024/01/03 09:44:34;;;;;;;30.75;6.28;;;11.10;99.90;;;;;;5101054;28;20070;-71
2024/01/03 09:47:00;;;;;;;30.98;5.13;;;11.20;99.90;;;;;;5095671;28;20055;-71
2024/01/03 09:49:26;;;;;;;34.03;6.07;;;11.20;99.90;;;;;;5109386;28;20020;-72
2024/01/03 09:51:52;;;;;;;34.20;7.18;;;11.30;99.90;;;;;;5113960;28;20085;-72
2024/01/03 09:54:19;;;;;;;26.40;5.30;;;11.30;99.90;;;;;;5112552;28;20107;-72
2024/01/03 09:56:47;;;;;;;30.13;5.43;;;11.30;99.90;;;;;;5110727;28;20132;-71
2024/01/03 09:59:13;;;;;;;30.73;6.32;;;11.30;99.90;;;;;;5110240;28;20051;-72
2024/01/03 10:01:38;;;;;;;33.40;6.80;;;11.20;99.90;;;;;;5112652;28;20083;-72
2024/01/03 10:04:06;;;;;;;35.17;6.40;;;11.20;99.90;;;;;;5108029;28;20048;-72
2024/01/03 10:06:31;;;;;;;31.65;6.78;;;11.20;99.90;;;;;;5095907;28;20400;-71
2024/01/03 10:09:02;;;;;;;31.70;6.50;;;11.20;99.90;;;;;;5113430;28;20023;-71
2024/01/03 10:11:28;;;;;;;27.92;6.20;;;11.20;99.90;;;;;;5113742;28;20039;-72
2024/01/03 10:13:55;;;;;;;31.48;5.50;;;11.30;99.90;;;;;;5110073;28;20027;-72
2024/01/03 10:16:25;;;;;;;28.10;5.25;;;11.40;99.90;;;;;;5113995;28;20027;-72
2024/01/03 10:19:08;;;;;;;29.90;4.70;;;11.30;99.90;;;;;;5108791;28;20148;-72
2024/01/03 10:21:34;;;;;;;26.48;4.95;;;11.30;99.90;;;;;;5108418;28;20038;-72
2024/01/03 10:24:05;;;;;;;29.95;5.47;;;11.40;99.90;;;;;;5114757;28;20028;-73
2024/01/03 10:26:31;;;;;;;25.55;4.85;;;11.40;99.90;;;;;;5114846;28;20032;-71
2024/01/03 10:29:13;;;;;;;27.30;4.97;;;11.40;99.90;;;;;;5113948;28;20032;-71
2024/01/03 10:31:38;;;;;;;30.58;5.75;;;11.30;99.90;;;;;;5094435;28;20039;-71
2024/01/03 10:34:04;;;;;;;28.05;5.82;;;11.30;99.90;;;;;;5093930;28;20028;-71
2024/01/03 10:36:32;;;;;;;31.30;5.93;;;11.30;99.90;;;;;;5094968;28;20032;-70
2024/01/03 10:38:59;;;;;;;34.28;5.82;;;11.30;99.90;;;;;;5104650;28;20028;-71
2024/01/03 10:41:25;;;;;;;28.83;5.40;;;11.30;99.90;;;;;;5131587;27;20035;-70
2024/01/03 10:43:51;;;;;;;25.15;5.10;;;11.30;99.90;;;;;;5135183;27;20035;-70
2024/01/03 10:46:18;;;;;;;32.65;6.40;;;11.20;99.90;;;;;;5134929;27;20061;-70
2024/01/03 10:48:44;;;;;;;26.88;5.30;;;11.20;99.90;;;;;;5118383;27;20024;-70
2024/01/03 10:51:13;;;;;;;32.20;6.28;;;11.20;99.90;;;;;;5094062;28;20473;-70
2024/01/03 10:53:44;;;;;;;36.88;5.78;;;11.30;99.90;;;;;;5093840;28;20462;-70
2024/01/03 10:56:10;;;;;;;29.15;5.20;;;11.40;99.90;;;;;;5098306;28;20020;-71
2024/01/03 10:58:42;;;;;;;26.63;5.68;;;11.50;99.90;;;;;;5111819;28;20055;-70
2024/01/03 11:01:19;;;;;;;;;;;11.50;99.90;;;;;;5112185;28;20027;-71
2024/01/03 11:03:51;;;;;;;29.08;5.47;;;11.50;99.90;;;;;;5112587;28;19925;-71
2024/01/03 11:06:41;;;;;;;26.38;5.63;;;11.40;99.90;;;;;;5109540;27;20088;-72
2024/01/03 11:09:07;;;;;;;29.52;4.97;;;11.50;99.90;;;;;;5107685;28;20491;-71
2024/01/03 11:11:37;;;;;;;30.73;5.88;;;11.60;99.90;;;;;;5112861;28;20027;-71
2024/01/03 11:14:21;;;;;;;29.45;5.70;;;11.60;99.90;;;;;;5111490;28;20034;-71
2024/01/03 11:16:47;;;;;;;31.13;7.20;;;11.60;99.90;;;;;;5102754;28;20032;-71
2024/01/03 11:19:13;;;;;;;34.00;6.82;;;11.60;99.90;;;;;;5112895;28;20496;-71
2024/01/03 11:21:49;;;;;;;32.60;6.07;;;11.60;99.90;;;;;;5113173;28;20032;-71
2024/01/03 11:24:21;;;;;;;33.50;6.05;;;11.60;99.90;;;;;;5113147;28;20055;-71
2024/01/03 11:26:53;;;;;;;31.00;6.32;;;11.50;99.90;;;;;;5111571;28;20035;-71
2024/01/03 11:29:33;;;;;;;;;;;11.50;99.90;;;;;;5095234;28;20080;-71
2024/01/03 11:31:59;;;;;;;31.48;5.82;;;11.40;99.90;;;;;;5101578;28;19916;-71
2024/01/03 11:34:37;;;;;;;30.17;5.47;;;11.30;99.90;;;;;;5112216;28;20023;-71
2024/01/03 11:37:04;;;;;;;31.08;5.85;;;11.30;99.90;;;;;;5110655;28;20035;-71
2024/01/03 11:39:43;;;;;;;29.52;5.28;;;11.40;99.90;;;;;;5109257;28;20373;-71
2024/01/03 11:42:10;;;;;;;29.88;4.82;;;11.40;99.90;;;;;;5112688;28;20088;-71
2024/01/03 11:44:35;;;;;;;24.80;4.90;;;11.40;99.90;;;;;;5102713;28;20027;-71
2024/01/03 11:47:05;;;;;;;29.33;5.60;;;11.30;99.90;;;;;;5110788;28;20035;-71
2024/01/03 11:49:31;;;;;;;28.00;5.70;;;11.30;99.90;;;;;;5112260;28;20034;-71
2024/01/03 11:51:57;;;;;;;33.05;6.40;;;11.30;99.90;;;;;;5111753;28;20066;-71
2024/01/03 11:54:24;;;;;;;26.65;5.20;;;11.20;99.90;;;;;;5112412;28;20107;-70
2024/01/03 11:56:49;;;;;;;26.23;5.20;;;11.20;99.90;;;;;;5110974;28;20028;-71
2024/01/03 11:59:20;;;;;;;34.67;5.97;;;11.20;99.90;;;;;;5111862;28;20023;-70
2024/01/03 12:01:58;;;;;;;31.03;7.00;;;11.20;99.90;;;;;;5111707;28;20034;-70
2024/01/03 12:04:25;;;;;;;26.95;6.85;;;11.20;99.90;;;;;;5112130;28;20401;-71
2024/01/03 12:06:58;;;;;;;34.22;6.57;;;11.20;99.90;;;;;;5105395;28;20385;-70
2024/01/03 12:09:29;;;;;;;35.95;7.68;;;11.20;99.90;;;;;;5111895;28;20036;-71
2024/01/03 12:11:55;;;;;;;37.35;8.10;;;11.20;99.90;;;;;;5098100;28;20067;-71
2024/01/03 12:14:20;;;;;;;28.70;5.85;;;11.40;99.90;;;;;;5112372;28;20043;-71
2024/01/03 12:16:47;;;;;;;28.95;5.40;;;11.60;99.90;;;;;;5111780;28;20027;-71
2024/01/03 12:19:30;;;;;;;31.50;5.25;;;12.00;99.90;;;;;;5112042;28;20074;-70
2024/01/03 12:21:58;;;;;;;28.52;5.18;;;12.20;99.90;;;;;;5095165;28;20660;-72
2024/01/03 12:24:43;;;;;;;30.90;6.13;;;12.10;99.90;;;;;;5099390;28;20054;-72
2024/01/03 12:27:09;;;;;;;28.27;5.47;;;12.00;99.90;;;;;;5112182;28;20465;-71
2024/01/03 12:29:35;;;;;;;30.30;5.75;;;12.00;99.90;;;;;;5112153;28;20062;-71
2024/01/03 12:32:20;;;;;;;30.55;6.55;;;12.00;99.90;;;;;;5109569;28;20039;-71
2024/01/03 12:34:48;;;;;;;33.20;5.78;;;12.10;99.90;;;;;;5112219;28;20077;-71
2024/01/03 12:37:14;;;;;;;32.63;6.57;;;12.10;99.90;;;;;;5112107;28;20020;-71